Time;durP1;ratioP1;P1;durP2;ratioP2;P2;SDS_P1;SDS_P2;PMS_P1;PMS_P2;Temp;Humidity;BMP_temperature;BMP_pressure;BME280_temperature;BME280_humidity;BME280_pressure;Samples;Min_cycle;Max_cycle;Signal;HPM_P1;HPM_P2
2022/11/13 00:02:17;;;;;;;3.35;2.30;;;;;;;;;;1739639;82;21014;-57
2022/11/13 00:05:03;;;;;;;4.35;2.37;;;;;;;;;;1718394;82;21049;-58
2022/11/13 00:07:48;;;;;;;4.37;2.70;;;;;;;;;;1696080;83;21490;-57
2022/11/13 00:10:32;;;;;;;5.12;2.92;;;;;;;;;;1735146;82;21013;-57
2022/11/13 00:13:17;;;;;;;3.98;2.52;;;;;;;;;;1751507;82;21053;-58
2022/11/13 00:16:03;;;;;;;4.87;2.62;;;;;;;;;;1738288;82;21041;-57
2022/11/13 02:23:18;;;;;;;4.58;2.10;;;;;;;;;;1831982;77;22070;-58
2022/11/13 02:26:05;;;;;;;2.55;1.70;;;;;;;;;;1784894;80;21547;-58
2022/11/13 02:28:50;;;;;;;5.75;2.20;;;;;;;;;;1764331;80;21063;-58
2022/11/13 02:31:34;;;;;;;2.98;1.98;;;;;;;;;;1766307;80;21028;-59
2022/11/13 02:34:19;;;;;;;2.85;1.80;;;;;;;;;;1772810;80;21048;-58
2022/11/13 02:37:04;;;;;;;3.37;2.05;;;;;;;;;;1788410;80;21029;-58
2022/11/13 02:39:50;;;;;;;2.75;1.90;;;;;;;;;;1792773;79;21583;-58
2022/11/13 02:42:35;;;;;;;2.50;1.75;;;;;;;;;;1790271;80;21591;-58
2022/11/13 02:45:20;;;;;;;2.27;1.70;;;;;;;;;;1792513;79;21052;-58
2022/11/13 02:48:05;;;;;;;2.75;1.95;;;;;;;;;;1790014;79;21045;-57
2022/11/13 02:50:50;;;;;;;2.12;1.62;;;;;;;;;;1761720;81;21044;-58
2022/11/13 02:53:34;;;;;;;3.55;1.77;;;;;;;;;;1763465;80;21044;-58
2022/11/13 02:56:19;;;;;;;2.10;1.60;;;;;;;;;;1786515;80;21480;-58
2022/11/13 02:59:05;;;;;;;3.47;2.00;;;;;;;;;;1788093;80;21013;-58
2022/11/13 03:01:50;;;;;;;3.05;1.82;;;;;;;;;;1768643;80;21052;-58
2022/11/13 03:04:35;;;;;;;3.27;1.92;;;;;;;;;;1770049;80;21049;-57
2022/11/13 03:07:19;;;;;;;2.42;1.65;;;;;;;;;;1775047;80;21017;-57
2022/11/13 03:10:05;;;;;;;2.67;1.95;;;;;;;;;;1761420;80;21099;-57
2022/11/13 03:12:49;;;;;;;2.58;1.52;;;;;;;;;;1761817;80;21072;-57
2022/11/13 03:15:34;;;;;;;2.75;1.72;;;;;;;;;;1781213;80;20997;-59
2022/11/13 03:18:19;;;;;;;3.12;2.00;;;;;;;;;;1764220;80;21036;-59
2022/11/13 03:21:08;;;;;;;2.60;1.80;;;;;;;;;;1765527;80;21048;-58
2022/11/13 03:23:53;;;;;;;4.12;2.00;;;;;;;;;;1783280;80;21531;-58
2022/11/13 03:26:38;;;;;;;3.40;1.80;;;;;;;;;;1787660;80;21078;-59
2022/11/13 03:29:24;;;;;;;3.72;1.80;;;;;;;;;;1768732;80;21036;-58
2022/11/13 03:32:11;;;;;;;3.12;1.90;;;;;;;;;;1790655;79;21539;-58
2022/11/13 03:34:55;;;;;;;2.77;1.72;;;;;;;;;;1764598;80;20970;-58
2022/11/13 03:37:40;;;;;;;5.15;1.98;;;;;;;;;;1778781;80;21044;-58
2022/11/13 03:40:25;;;;;;;3.12;1.87;;;;;;;;;;1769127;80;20993;-58
2022/11/13 03:43:10;;;;;;;2.30;1.55;;;;;;;;;;1789486;80;21099;-58
2022/11/13 03:45:55;;;;;;;2.62;1.98;;;;;;;;;;1775624;80;21029;-58
2022/11/13 03:48:39;;;;;;;3.12;1.87;;;;;;;;;;1769773;80;21036;-58
2022/11/13 03:51:24;;;;;;;2.77;1.80;;;;;;;;;;1785405;80;21020;-57
2022/11/13 03:54:08;;;;;;;4.10;2.05;;;;;;;;;;1765292;79;21065;-58
2022/11/13 03:56:53;;;;;;;2.35;1.80;;;;;;;;;;1791597;79;21068;-57
2022/11/13 03:59:37;;;;;;;2.50;1.98;;;;;;;;;;1771604;80;21468;-57
2022/11/13 04:02:22;;;;;;;2.42;1.85;;;;;;;;;;1769400;79;21599;-57
2022/11/13 04:05:08;;;;;;;2.35;1.70;;;;;;;;;;1776735;80;21523;-58
2022/11/13 04:07:52;;;;;;;3.47;1.80;;;;;;;;;;1762828;80;21064;-57
2022/11/13 04:10:37;;;;;;;4.12;1.92;;;;;;;;;;1765055;80;21029;-58
2022/11/13 04:13:22;;;;;;;2.67;2.00;;;;;;;;;;1778489;80;21080;-58
2022/11/13 04:16:07;;;;;;;4.95;2.00;;;;;;;;;;1775447;79;21045;-58
2022/11/13 04:18:53;;;;;;;3.85;1.80;;;;;;;;;;1791771;80;21014;-58
2022/11/13 04:21:39;;;;;;;3.33;1.70;;;;;;;;;;1790506;80;21099;-58
2022/11/13 04:24:23;;;;;;;2.62;1.77;;;;;;;;;;1775171;81;21030;-58
2022/11/13 04:27:08;;;;;;;2.92;1.35;;;;;;;;;;1754284;81;21037;-58
2022/11/13 04:29:52;;;;;;;2.40;1.70;;;;;;;;;;1756236;81;21025;-58
2022/11/13 04:32:38;;;;;;;3.70;2.10;;;;;;;;;;1747692;81;21508;-57
2022/11/13 04:35:22;;;;;;;3.08;2.00;;;;;;;;;;1748007;81;21073;-58
2022/11/13 04:38:07;;;;;;;2.60;1.60;;;;;;;;;;1762991;81;21154;-57
2022/11/13 04:42:47;;;;;;;3.72;1.80;;;;;;;;;;1759136;81;21021;-58
2022/11/13 04:43:39;;;;;;;2.35;1.67;;;;;;;;;;1762544;81;21033;-58
2022/11/13 04:46:23;;;;;;;1.98;1.67;;;;;;;;;;1751242;81;21060;-58
2022/11/13 04:49:08;;;;;;;2.60;1.52;;;;;;;;;;1747688;81;21477;-58
2022/11/13 04:51:53;;;;;;;2.50;1.67;;;;;;;;;;1772461;81;21010;-58
2022/11/13 04:54:37;;;;;;;1.82;1.47;;;;;;;;;;1777776;81;21469;-58
2022/11/13 04:57:22;;;;;;;2.70;1.67;;;;;;;;;;1767438;81;21037;-58
2022/11/13 05:00:08;;;;;;;2.25;1.82;;;;;;;;;;1762015;81;21018;-58
2022/11/13 05:02:52;;;;;;;2.45;1.60;;;;;;;;;;1778179;80;21071;-59
2022/11/13 05:05:38;;;;;;;2.30;1.65;;;;;;;;;;1770585;80;21052;-58
2022/11/13 05:08:24;;;;;;;2.10;1.50;;;;;;;;;;1771030;81;21022;-59
2022/11/13 05:11:09;;;;;;;1.82;1.50;;;;;;;;;;1764410;80;21002;-58
2022/11/13 05:13:54;;;;;;;1.98;1.60;;;;;;;;;;1778182;81;21046;-58
2022/11/13 05:16:38;;;;;;;2.80;1.70;;;;;;;;;;1753453;81;21536;-58
2022/11/13 05:19:23;;;;;;;2.08;1.60;;;;;;;;;;1747924;81;21584;-58
2022/11/13 05:22:08;;;;;;;3.25;1.80;;;;;;;;;;1750459;81;21081;-58
2022/11/13 05:24:53;;;;;;;2.98;1.67;;;;;;;;;;1770421;81;21017;-58
2022/11/13 05:27:37;;;;;;;2.80;1.90;;;;;;;;;;1766731;81;21053;-58
2022/11/13 05:30:21;;;;;;;2.47;1.82;;;;;;;;;;1765133;81;21029;-59
2022/11/13 05:33:06;;;;;;;2.02;1.50;;;;;;;;;;1767911;81;21033;-58
2022/11/13 05:35:51;;;;;;;1.98;1.60;;;;;;;;;;1775249;81;21517;-58
2022/11/13 05:38:35;;;;;;;3.22;1.60;;;;;;;;;;1747804;81;21030;-58
2022/11/13 05:41:20;;;;;;;2.80;1.80;;;;;;;;;;1750839;81;21109;-57
2022/11/13 05:44:05;;;;;;;2.52;1.60;;;;;;;;;;1749556;81;21080;-58
2022/11/13 05:46:49;;;;;;;2.77;1.67;;;;;;;;;;1776160;81;21541;-58
2022/11/13 05:49:34;;;;;;;2.60;1.75;;;;;;;;;;1762706;81;21080;-60
2022/11/13 05:52:19;;;;;;;1.82;1.50;;;;;;;;;;1763324;81;21076;-58
2022/11/13 05:55:04;;;;;;;2.42;1.80;;;;;;;;;;1764407;81;21029;-58
2022/11/13 05:57:49;;;;;;;2.45;1.90;;;;;;;;;;1754328;81;21072;-58
2022/11/13 06:00:33;;;;;;;1.90;1.70;;;;;;;;;;1776041;80;21025;-58
2022/11/13 06:03:18;;;;;;;2.70;1.67;;;;;;;;;;1747926;81;21033;-59
2022/11/13 06:06:03;;;;;;;2.92;1.80;;;;;;;;;;1756161;81;21041;-59
2022/11/13 06:08:48;;;;;;;2.33;1.60;;;;;;;;;;1768535;81;21064;-58
2022/11/13 06:27:32;;;;;;;2.42;1.72;;;;;;;;;;1801737;77;22186;-57
2022/11/13 06:30:18;;;;;;;2.80;1.72;;;;;;;;;;1772688;80;21018;-58
2022/11/13 06:33:03;;;;;;;2.33;1.80;;;;;;;;;;1782321;78;21068;-57
2022/11/13 06:35:47;;;;;;;3.02;2.10;;;;;;;;;;1790812;78;21562;-57
2022/11/13 06:38:33;;;;;;;2.72;1.92;;;;;;;;;;1785609;78;21539;-57
2022/11/13 06:41:18;;;;;;;2.47;1.75;;;;;;;;;;1784773;78;21492;-58
2022/11/13 06:44:03;;;;;;;3.00;1.87;;;;;;;;;;1783001;80;21543;-59
2022/11/13 06:46:47;;;;;;;2.75;1.82;;;;;;;;;;1787615;79;21091;-57
2022/11/13 06:49:32;;;;;;;2.67;1.65;;;;;;;;;;1790696;78;21033;-58
2022/11/13 06:52:17;;;;;;;2.60;1.90;;;;;;;;;;1792509;79;21120;-60
2022/11/13 06:55:03;;;;;;;1.75;1.50;;;;;;;;;;1755336;80;21568;-58
2022/11/13 06:57:48;;;;;;;2.00;1.70;;;;;;;;;;1777105;78;21008;-58
2022/11/13 07:00:33;;;;;;;2.08;1.37;;;;;;;;;;1781743;79;21057;-57
2022/11/13 07:03:17;;;;;;;1.42;1.30;;;;;;;;;;1781119;80;20970;-59
2022/11/13 07:06:04;;;;;;;3.02;1.75;;;;;;;;;;1788159;78;21303;-59
2022/11/13 07:08:50;;;;;;;2.30;1.60;;;;;;;;;;1776818;80;21071;-59
2022/11/13 07:11:35;;;;;;;2.37;1.60;;;;;;;;;;1780853;80;21032;-57
2022/11/13 07:14:19;;;;;;;2.67;1.70;;;;;;;;;;1788147;80;21025;-58
2022/11/13 07:17:06;;;;;;;1.57;1.35;;;;;;;;;;1762818;80;21103;-58
2022/11/13 07:19:51;;;;;;;2.77;1.60;;;;;;;;;;1756233;81;21032;-58
2022/11/13 07:22:36;;;;;;;2.20;1.75;;;;;;;;;;1714495;81;21063;-57
2022/11/13 07:25:21;;;;;;;1.60;1.50;;;;;;;;;;1700051;81;21087;-57
2022/11/13 07:28:06;;;;;;;1.60;1.50;;;;;;;;;;1689814;84;21064;-58
2022/11/13 07:30:51;;;;;;;2.92;1.60;;;;;;;;;;1708151;84;21540;-57
2022/11/13 07:33:36;;;;;;;1.80;1.40;;;;;;;;;;1702415;83;21004;-57
2022/11/13 07:36:21;;;;;;;3.72;1.77;;;;;;;;;;1701329;83;21521;-57
2022/11/13 07:39:06;;;;;;;2.25;1.70;;;;;;;;;;1707788;83;21066;-57
2022/11/13 07:41:52;;;;;;;3.15;1.98;;;;;;;;;;1725308;82;21079;-58
2022/11/13 07:44:36;;;;;;;2.10;1.75;;;;;;;;;;1687314;84;21088;-58
2022/11/13 07:47:22;;;;;;;2.60;1.90;;;;;;;;;;1716719;82;21008;-58
2022/11/13 07:50:07;;;;;;;2.00;1.80;;;;;;;;;;1710179;83;21033;-57
2022/11/13 07:52:56;;;;;;;2.02;1.60;;;;;;;;;;1711885;83;21555;-58
2022/11/13 07:55:40;;;;;;;2.20;1.70;;;;;;;;;;1704436;84;21141;-57
2022/11/13 07:58:25;;;;;;;2.60;2.05;;;;;;;;;;1715403;83;21103;-57
2022/11/13 08:01:10;;;;;;;4.00;2.20;;;;;;;;;;1709596;83;21079;-57
2022/11/13 08:03:55;;;;;;;4.22;2.00;;;;;;;;;;1712027;83;21043;-57
2022/11/13 08:06:41;;;;;;;2.80;2.30;;;;;;;;;;1715902;82;20996;-72
2022/11/13 08:09:26;;;;;;;4.10;2.05;;;;;;;;;;1722410;83;21059;-56
2022/11/13 08:12:13;;;;;;;3.35;2.27;;;;;;;;;;1711309;83;21079;-56
2022/11/13 08:14:59;;;;;;;2.77;2.15;;;;;;;;;;1710282;84;22012;-57
2022/11/13 08:17:43;;;;;;;3.05;1.95;;;;;;;;;;1686021;83;21118;-57
2022/11/13 08:20:29;;;;;;;7.28;6.00;;;;;;;;;;1720357;83;21503;-57
2022/11/13 08:23:13;;;;;;;12.07;11.12;;;;;;;;;;1698984;83;21058;-57
2022/11/13 08:26:00;;;;;;;5.90;4.25;;;;;;;;;;1690956;84;21072;-57
2022/11/13 08:28:46;;;;;;;3.05;2.02;;;;;;;;;;1668896;85;21068;-56
2022/11/13 08:31:31;;;;;;;2.70;2.10;;;;;;;;;;1681742;84;22208;-57
2022/11/13 08:34:16;;;;;;;3.77;2.50;;;;;;;;;;1701783;84;21073;-57
2022/11/13 08:37:01;;;;;;;3.95;2.27;;;;;;;;;;1647680;86;21017;-57
2022/11/13 08:39:46;;;;;;;3.67;2.40;;;;;;;;;;1737344;82;21040;-58
2022/11/13 08:42:31;;;;;;;4.00;3.08;;;;;;;;;;1734262;82;21017;-57
2022/11/13 08:45:16;;;;;;;2.90;2.30;;;;;;;;;;1733017;82;21017;-57
2022/11/13 08:48:01;;;;;;;3.47;2.08;;;;;;;;;;1729701;82;21601;-58
2022/11/13 08:50:46;;;;;;;2.30;2.10;;;;;;;;;;1736648;82;21021;-57
2022/11/13 08:53:31;;;;;;;2.02;1.80;;;;;;;;;;1703542;82;21075;-57
2022/11/13 08:56:15;;;;;;;3.47;2.30;;;;;;;;;;1739726;82;21040;-57
2022/11/13 08:59:00;;;;;;;2.55;1.90;;;;;;;;;;1724921;82;21091;-57
2022/11/13 09:01:45;;;;;;;3.27;2.58;;;;;;;;;;1733125;82;22301;-58
2022/11/13 09:04:29;;;;;;;3.20;2.40;;;;;;;;;;1722838;82;21511;-57
2022/11/13 09:07:14;;;;;;;3.62;2.40;;;;;;;;;;1734832;82;21075;-57
2022/11/13 09:09:59;;;;;;;3.25;2.15;;;;;;;;;;1738519;82;21095;-58
2022/11/13 09:12:44;;;;;;;2.90;2.60;;;;;;;;;;1739476;82;21049;-58
2022/11/13 09:15:30;;;;;;;3.33;2.50;;;;;;;;;;1714497;82;21076;-57
2022/11/13 09:18:16;;;;;;;4.08;2.40;;;;;;;;;;1736348;82;21088;-56
2022/11/13 09:21:01;;;;;;;3.05;2.30;;;;;;;;;;1744782;82;21013;-57
2022/11/13 09:23:46;;;;;;;3.92;2.10;;;;;;;;;;1745097;82;21064;-57
2022/11/13 09:26:31;;;;;;;2.90;2.42;;;;;;;;;;1735409;81;21060;-57
2022/11/13 09:29:17;;;;;;;4.87;2.67;;;;;;;;;;1729289;82;21064;-57
2022/11/13 09:32:02;;;;;;;5.22;3.25;;;;;;;;;;1740149;82;21036;-57
2022/11/13 09:34:46;;;;;;;3.27;2.80;;;;;;;;;;1749301;81;20980;-57
2022/11/13 09:37:33;;;;;;;4.67;3.17;;;;;;;;;;1748799;81;22164;-55
2022/11/13 09:40:20;;;;;;;5.10;3.35;;;;;;;;;;1741772;81;21025;-56
2022/11/13 09:43:05;;;;;;;8.80;6.65;;;;;;;;;;1724882;82;21044;-56
2022/11/13 09:45:51;;;;;;;5.05;3.92;;;;;;;;;;1732013;82;21033;-57
2022/11/13 09:48:37;;;;;;;4.80;3.65;;;;;;;;;;1748862;81;21056;-57
2022/11/13 09:51:23;;;;;;;4.05;3.15;;;;;;;;;;1744064;81;21492;-56
2022/11/13 09:54:09;;;;;;;4.10;2.90;;;;;;;;;;1755219;82;21088;-56
2022/11/13 09:57:12;;;;;;;3.20;2.90;;;;;;;;;;1754868;82;21052;-56
2022/11/13 09:59:58;;;;;;;;;;;;;;;;;;1750209;82;22073;-57
2022/11/13 10:02:51;;;;;;;4.25;2.35;;;;;;;;;;1752838;82;20485;-56
2022/11/13 10:05:44;;;;;;;2.40;2.10;;;;;;;;;;1747412;80;21040;-57
2022/11/13 10:08:31;;;;;;;4.25;2.60;;;;;;;;;;1750462;80;21102;-57
2022/11/13 10:11:34;;;;;;;4.08;2.52;;;;;;;;;;1750815;81;21032;-58
2022/11/13 10:14:27;;;;;;;2.83;2.20;;;;;;;;;;1752910;82;21044;-58
2022/11/13 10:17:22;;;;;;;3.15;2.15;;;;;;;;;;1753859;82;21011;-57
2022/11/13 10:20:15;;;;;;;3.83;2.70;;;;;;;;;;1755809;81;21109;-57
2022/11/13 10:23:01;;;;;;;2.90;2.10;;;;;;;;;;1741098;82;21005;-57
2022/11/13 10:25:46;;;;;;;3.40;2.12;;;;;;;;;;1746523;82;21600;-58
2022/11/13 10:41:25;;;;;;;2.80;1.92;;;;;;;;;;1785257;80;28073;-58
2022/11/13 10:44:19;;;;;;;1.95;1.57;;;;;;;;;;1739400;81;21038;-58
2022/11/13 10:47:06;;;;;;;2.08;1.60;;;;;;;;;;1757845;81;21099;-57
2022/11/13 10:49:50;;;;;;;2.75;1.70;;;;;;;;;;1740313;81;20997;-58
2022/11/13 10:52:38;;;;;;;1.80;1.32;;;;;;;;;;1751836;81;21071;-58
2022/11/13 10:55:35;;;;;;;2.75;1.90;;;;;;;;;;1741168;81;21026;-58
2022/11/13 10:58:20;;;;;;;3.62;2.15;;;;;;;;;;1747440;81;21079;-58
2022/11/13 11:01:23;;;;;;;4.92;2.17;;;;;;;;;;1742363;81;21001;-58
2022/11/13 11:04:09;;;;;;;;;;;;;;;;;;1756867;81;21088;-58
2022/11/13 11:06:53;;;;;;;7.12;3.50;;;;;;;;;;1743215;81;20154;-57
2022/11/13 11:09:39;;;;;;;5.28;3.62;;;;;;;;;;1759064;81;21058;-57
2022/11/13 11:12:24;;;;;;;6.42;3.47;;;;;;;;;;1750573;81;21504;-57
2022/11/13 11:15:10;;;;;;;4.20;2.15;;;;;;;;;;1749972;81;21515;-57
2022/11/13 11:17:59;;;;;;;2.20;1.80;;;;;;;;;;1722664;81;21100;-57
2022/11/13 11:20:55;;;;;;;2.52;1.70;;;;;;;;;;1745102;81;21547;-57
2022/11/13 11:23:42;;;;;;;2.92;1.87;;;;;;;;;;1743489;81;21024;-57
2022/11/13 11:26:33;;;;;;;2.80;1.95;;;;;;;;;;1742640;81;21060;-57
2022/11/13 11:29:37;;;;;;;4.17;1.90;;;;;;;;;;1755133;81;21063;-58
2022/11/13 11:32:27;;;;;;;3.58;2.00;;;;;;;;;;1743230;81;21068;-58
2022/11/13 11:35:17;;;;;;;2.10;1.80;;;;;;;;;;1747712;81;21540;-58
2022/11/13 11:38:15;;;;;;;2.75;1.85;;;;;;;;;;1731744;83;21614;-58
2022/11/13 11:41:08;;;;;;;4.50;1.92;;;;;;;;;;1754168;81;21024;-58
2022/11/13 11:44:00;;;;;;;2.65;1.57;;;;;;;;;;1760350;81;21068;-58
2022/11/13 11:46:42;;;;;;;3.05;1.77;;;;;;;;;;1747114;81;21096;-57
2022/11/13 11:49:27;;;;;;;2.60;1.90;;;;;;;;;;1754766;81;22132;-58
2022/11/13 11:52:13;;;;;;;2.90;1.90;;;;;;;;;;1730402;81;21571;-57
2022/11/13 11:55:06;;;;;;;3.42;2.20;;;;;;;;;;1740806;81;21532;-58
2022/11/13 11:57:56;;;;;;;3.15;2.00;;;;;;;;;;1751795;81;21044;-58
2022/11/13 12:00:42;;;;;;;2.60;1.92;;;;;;;;;;1759541;81;21001;-58
2022/11/13 12:03:29;;;;;;;4.45;2.20;;;;;;;;;;1754196;81;22196;-57
2022/11/13 12:06:25;;;;;;;2.90;1.98;;;;;;;;;;1763515;80;21037;-58
2022/11/13 12:09:29;;;;;;;3.10;2.08;;;;;;;;;;1735045;81;21029;-58
2022/11/13 12:12:19;;;;;;;4.28;1.95;;;;;;;;;;1739381;81;21088;-58
2022/11/13 12:15:15;;;;;;;2.60;1.82;;;;;;;;;;1753228;81;21508;-58
2022/11/13 12:18:02;;;;;;;3.42;1.90;;;;;;;;;;1769140;81;21072;-58
2022/11/13 12:20:53;;;;;;;2.87;1.82;;;;;;;;;;1763246;80;21044;-58
2022/11/13 12:23:40;;;;;;;7.15;4.22;;;;;;;;;;1746969;81;21060;-57
2022/11/13 12:26:26;;;;;;;6.28;3.87;;;;;;;;;;1788765;80;21103;-58
2022/11/13 12:29:16;;;;;;;3.37;2.05;;;;;;;;;;1755329;79;21550;-58
2022/11/13 12:32:19;;;;;;;3.87;2.30;;;;;;;;;;1781836;80;21013;-59
2022/11/13 12:35:05;;;;;;;2.52;1.80;;;;;;;;;;1766622;80;21021;-58
2022/11/13 12:37:52;;;;;;;2.65;1.80;;;;;;;;;;1761035;81;21149;-57
2022/11/13 12:40:37;;;;;;;3.05;1.80;;;;;;;;;;1778265;80;21021;-57
2022/11/13 12:43:33;;;;;;;2.83;1.75;;;;;;;;;;1756020;80;21036;-56
2022/11/13 12:46:18;;;;;;;3.05;1.92;;;;;;;;;;1774008;80;21056;-57
2022/11/13 12:49:05;;;;;;;3.02;1.90;;;;;;;;;;1766111;81;21044;-57
2022/11/13 12:51:57;;;;;;;3.37;2.02;;;;;;;;;;1760854;81;21047;-57
2022/11/13 12:54:41;;;;;;;2.55;1.80;;;;;;;;;;1747280;81;21477;-57
2022/11/13 12:57:26;;;;;;;4.42;2.37;;;;;;;;;;1746747;82;21527;-57
2022/11/13 13:00:13;;;;;;;5.00;2.08;;;;;;;;;;1746346;82;21024;-57
2022/11/13 13:03:00;;;;;;;2.90;2.02;;;;;;;;;;1756458;81;21053;-57
2022/11/13 13:05:46;;;;;;;3.67;2.20;;;;;;;;;;1779171;80;21095;-57
2022/11/13 13:08:34;;;;;;;5.03;2.17;;;;;;;;;;1750543;81;20972;-57
2022/11/13 13:11:36;;;;;;;3.37;2.08;;;;;;;;;;1759507;81;21024;-57
2022/11/13 13:14:23;;;;;;;4.12;2.08;;;;;;;;;;1731266;83;21076;-57
2022/11/13 13:17:15;;;;;;;3.95;2.00;;;;;;;;;;1755849;82;21032;-58
2022/11/13 13:20:03;;;;;;;3.65;2.10;;;;;;;;;;1759288;81;21567;-58
2022/11/13 13:22:57;;;;;;;3.65;2.05;;;;;;;;;;1775455;80;21003;-58
2022/11/13 13:25:42;;;;;;;3.75;2.22;;;;;;;;;;1747368;81;21068;-57
2022/11/13 13:28:27;;;;;;;2.05;1.70;;;;;;;;;;1746702;81;21029;-57
2022/11/13 13:31:15;;;;;;;3.60;2.00;;;;;;;;;;1764314;81;21096;-57
2022/11/13 13:34:18;;;;;;;2.20;1.70;;;;;;;;;;1761966;81;21583;-57
2022/11/13 13:37:22;;;;;;;4.00;1.82;;;;;;;;;;1734436;83;21044;-58
2022/11/13 13:40:26;;;;;;;3.08;2.00;;;;;;;;;;1731966;83;21574;-58
2022/11/13 13:43:15;;;;;;;4.78;2.10;;;;;;;;;;1730781;82;21509;-57
2022/11/13 13:46:11;;;;;;;3.58;2.30;;;;;;;;;;1742486;82;21081;-57
2022/11/13 13:48:58;;;;;;;2.70;1.90;;;;;;;;;;1732615;82;21062;-57
2022/11/13 13:51:45;;;;;;;3.92;1.67;;;;;;;;;;1752748;81;21004;-57
2022/11/13 13:54:31;;;;;;;18.07;12.37;;;;;;;;;;1740561;82;21575;-58
2022/11/13 13:57:16;;;;;;;7.15;4.58;;;;;;;;;;1746377;82;21060;-56
2022/11/13 14:00:01;;;;;;;3.90;2.10;;;;;;;;;;1719304;82;21088;-58
2022/11/13 14:02:47;;;;;;;4.00;2.40;;;;;;;;;;1725386;83;21056;-58
2022/11/13 14:05:33;;;;;;;4.60;2.25;;;;;;;;;;1723921;82;21048;-56
2022/11/13 14:08:18;;;;;;;5.85;2.70;;;;;;;;;;1744183;82;21009;-56
2022/11/13 14:11:17;;;;;;;4.22;2.60;;;;;;;;;;1717357;82;21084;-57
2022/11/13 14:14:09;;;;;;;3.22;2.42;;;;;;;;;;1731697;82;21591;-57
2022/11/13 14:16:55;;;;;;;4.50;2.70;;;;;;;;;;1732056;83;21040;-57
2022/11/13 14:19:40;;;;;;;4.97;3.10;;;;;;;;;;1743525;82;21033;-57
2022/11/13 14:22:24;;;;;;;6.47;3.40;;;;;;;;;;1726077;82;21068;-56
2022/11/13 14:25:11;;;;;;;5.70;2.80;;;;;;;;;;1730549;82;21608;-57
2022/11/13 14:27:55;;;;;;;6.03;3.08;;;;;;;;;;1732937;82;21607;-57
2022/11/13 14:30:40;;;;;;;7.30;3.45;;;;;;;;;;1722205;82;21106;-57
2022/11/13 14:33:31;;;;;;;6.75;3.70;;;;;;;;;;1761449;81;21043;-57
2022/11/13 14:36:18;;;;;;;6.80;3.47;;;;;;;;;;1742368;82;21096;-57
2022/11/13 14:39:03;;;;;;;6.58;3.75;;;;;;;;;;1746448;82;21041;-57
2022/11/13 14:41:49;;;;;;;7.67;3.77;;;;;;;;;;1746783;81;21065;-58
2022/11/13 14:44:33;;;;;;;8.00;4.10;;;;;;;;;;1733740;82;21515;-58
2022/11/13 14:47:22;;;;;;;8.65;4.60;;;;;;;;;;1730180;83;21060;-57
2022/11/13 14:50:22;;;;;;;9.70;4.58;;;;;;;;;;1733754;82;21607;-57
2022/11/13 14:53:07;;;;;;;9.53;4.15;;;;;;;;;;1717016;83;21018;-59
2022/11/13 14:55:52;;;;;;;7.22;4.05;;;;;;;;;;1745858;81;21004;-58
2022/11/13 14:58:38;;;;;;;9.43;5.20;;;;;;;;;;1745634;82;21045;-58
2022/11/13 15:13:51;;;;;;;10.08;6.17;;;;;;;;;;1806771;79;28145;-57
2022/11/13 15:16:38;;;;;;;10.18;6.87;;;;;;;;;;1772736;80;22040;-57
2022/11/13 15:19:30;;;;;;;8.53;4.75;;;;;;;;;;1764913;81;21119;-57
2022/11/13 15:22:14;;;;;;;7.42;4.85;;;;;;;;;;1785476;80;21028;-57
2022/11/13 15:24:59;;;;;;;7.37;4.90;;;;;;;;;;1804124;78;20988;-57
2022/11/13 15:27:43;;;;;;;8.93;4.60;;;;;;;;;;1813696;78;21519;-57
2022/11/13 15:30:28;;;;;;;7.60;4.83;;;;;;;;;;1813408;78;21067;-57
2022/11/13 15:33:14;;;;;;;9.50;5.12;;;;;;;;;;1802065;78;21024;-58
2022/11/13 15:35:58;;;;;;;7.37;4.45;;;;;;;;;;1800910;78;21016;-56
2022/11/13 15:38:44;;;;;;;8.53;4.92;;;;;;;;;;1827645;78;21028;-56
2022/11/13 15:41:29;;;;;;;9.78;5.10;;;;;;;;;;1785539;80;21059;-56
2022/11/13 15:44:13;;;;;;;13.58;6.50;;;;;;;;;;1787912;80;21059;-57
2022/11/13 15:46:58;;;;;;;17.70;7.50;;;;;;;;;;1819418;78;21546;-57
2022/11/13 15:49:43;;;;;;;9.50;5.55;;;;;;;;;;1802747;78;21480;-58
2022/11/13 15:52:29;;;;;;;8.60;4.65;;;;;;;;;;1779051;78;21013;-58
2022/11/13 15:55:18;;;;;;;8.95;5.12;;;;;;;;;;1829012;78;20990;-56
2022/11/13 15:58:03;;;;;;;15.60;5.80;;;;;;;;;;1792266;78;20996;-56
2022/11/13 16:00:48;;;;;;;63.23;25.35;;;;;;;;;;1821041;78;21007;-57
2022/11/13 16:03:38;;;;;;;44.67;14.10;;;;;;;;;;1794348;80;21067;-56
2022/11/13 16:06:20;;;;;;;78.85;31.12;;;;;;;;;;1788213;80;21025;-58
2022/11/13 16:09:04;;;;;;;77.12;30.70;;;;;;;;;;1782386;80;21012;-58
2022/11/13 16:11:49;;;;;;;73.07;31.62;;;;;;;;;;1791973;80;21039;-57
2022/11/13 16:14:35;;;;;;;50.45;25.17;;;;;;;;;;1740300;82;21613;-57
2022/11/13 16:17:21;;;;;;;25.43;12.80;;;;;;;;;;1740440;82;21012;-56
2022/11/13 16:20:09;;;;;;;14.33;6.85;;;;;;;;;;1742513;81;21040;-56
2022/11/13 16:22:54;;;;;;;9.45;5.37;;;;;;;;;;1740431;82;21079;-56
2022/11/13 16:25:40;;;;;;;9.53;5.35;;;;;;;;;;1761826;81;21092;-58
2022/11/13 16:28:24;;;;;;;7.97;5.08;;;;;;;;;;1788890;79;21027;-56
2022/11/13 16:31:09;;;;;;;8.65;5.47;;;;;;;;;;1771122;81;21485;-56
2022/11/13 16:33:55;;;;;;;7.80;4.47;;;;;;;;;;1770502;81;21518;-57
2022/11/13 16:36:41;;;;;;;8.10;4.62;;;;;;;;;;1771076;81;21044;-56
2022/11/13 16:39:25;;;;;;;7.20;3.72;;;;;;;;;;1767427;81;21027;-56
2022/11/13 16:42:11;;;;;;;6.85;4.20;;;;;;;;;;1766103;81;22077;-56
2022/11/13 16:44:56;;;;;;;12.90;7.90;;;;;;;;;;1752042;81;21024;-55
2022/11/13 16:47:41;;;;;;;7.70;5.22;;;;;;;;;;1765458;79;21087;-56
2022/11/13 16:50:29;;;;;;;10.95;4.97;;;;;;;;;;1762182;81;21035;-55
2022/11/13 16:53:14;;;;;;;7.33;4.28;;;;;;;;;;1740285;82;21047;-56
2022/11/13 16:55:59;;;;;;;8.73;4.28;;;;;;;;;;1754313;80;21530;-57
2022/11/13 16:58:44;;;;;;;8.00;5.03;;;;;;;;;;1758058;81;21055;-57
2022/11/13 17:01:29;;;;;;;7.67;4.78;;;;;;;;;;1740310;82;21099;-56
2022/11/13 17:04:14;;;;;;;10.05;5.50;;;;;;;;;;1743077;81;21142;-57
2022/11/13 17:06:59;;;;;;;7.45;4.65;;;;;;;;;;1751316;81;21086;-57
2022/11/13 17:09:44;;;;;;;7.83;4.75;;;;;;;;;;1767093;81;21051;-56
2022/11/13 17:12:29;;;;;;;6.72;4.50;;;;;;;;;;1770319;79;21071;-57
2022/11/13 17:18:03;;;;;;;5.33;3.80;;;;;;;;;;1735213;79;21664;-56
2022/11/13 17:21:23;;;;;;;4.72;3.52;;;;;;;;;;1807287;77;27371;-57
2022/11/13 17:24:07;;;;;;;8.13;4.33;;;;;;;;;;1780272;78;21076;-57
2022/11/13 17:26:52;;;;;;;7.50;4.28;;;;;;;;;;1783621;78;21071;-57
2022/11/13 17:29:37;;;;;;;8.08;4.17;;;;;;;;;;1771141;78;21066;-57
2022/11/13 17:32:23;;;;;;;7.10;4.28;;;;;;;;;;1782041;78;21040;-57
2022/11/13 17:35:10;;;;;;;7.65;4.30;;;;;;;;;;1775498;78;21039;-58
2022/11/13 17:37:55;;;;;;;8.50;5.30;;;;;;;;;;1770374;80;21081;-57
2022/11/13 17:40:41;;;;;;;6.22;4.45;;;;;;;;;;1791450;78;21567;-57
2022/11/13 17:43:26;;;;;;;6.28;3.75;;;;;;;;;;1786265;78;21090;-57
2022/11/13 17:46:12;;;;;;;5.62;4.00;;;;;;;;;;1779580;78;21032;-58
2022/11/13 17:48:56;;;;;;;8.05;4.20;;;;;;;;;;1775381;78;21071;-58
2022/11/13 17:51:41;;;;;;;6.78;4.25;;;;;;;;;;1777583;78;21035;-57
2022/11/13 17:54:28;;;;;;;9.48;4.28;;;;;;;;;;1785615;78;21514;-58
2022/11/13 17:57:13;;;;;;;6.25;4.15;;;;;;;;;;1777965;78;21004;-57
2022/11/13 17:59:58;;;;;;;5.45;4.08;;;;;;;;;;1785729;78;21037;-57
2022/11/13 18:02:44;;;;;;;8.58;5.00;;;;;;;;;;1782862;78;21044;-57
2022/11/13 18:05:29;;;;;;;7.40;4.55;;;;;;;;;;1781916;78;21079;-57
2022/11/13 18:08:14;;;;;;;9.85;5.35;;;;;;;;;;1773332;78;21052;-57
2022/11/13 18:11:03;;;;;;;10.03;5.62;;;;;;;;;;1767003;80;21703;-56
2022/11/13 18:13:48;;;;;;;11.05;6.00;;;;;;;;;;1787368;80;21071;-57
2022/11/13 18:16:34;;;;;;;10.95;5.80;;;;;;;;;;1774815;78;21076;-62
2022/11/13 18:19:22;;;;;;;8.35;4.78;;;;;;;;;;1787809;80;21037;-57
2022/11/13 18:22:08;;;;;;;9.83;4.75;;;;;;;;;;1784162;79;21001;-57
2022/11/13 18:24:53;;;;;;;11.20;4.90;;;;;;;;;;1788846;79;21061;-57
2022/11/13 18:27:38;;;;;;;9.03;4.42;;;;;;;;;;1773617;80;21053;-58
2022/11/13 18:30:23;;;;;;;7.42;4.03;;;;;;;;;;1776125;80;21071;-57
2022/11/13 18:33:08;;;;;;;6.92;4.15;;;;;;;;;;1778592;80;21044;-56
2022/11/13 18:49:17;;;;;;;8.45;4.92;;;;;;;;;;1853511;76;28091;-56
2022/11/13 18:52:02;;;;;;;6.42;4.30;;;;;;;;;;1842827;76;21036;-58
2022/11/13 18:54:47;;;;;;;7.87;4.40;;;;;;;;;;1834940;78;20985;-58
2022/11/13 18:57:33;;;;;;;5.85;4.25;;;;;;;;;;1830132;78;21047;-57
2022/11/13 19:00:18;;;;;;;6.08;3.50;;;;;;;;;;1834082;78;21035;-56
2022/11/13 19:03:03;;;;;;;6.75;4.37;;;;;;;;;;1822922;78;21015;-58
2022/11/13 19:05:47;;;;;;;5.50;3.87;;;;;;;;;;1837011;78;21048;-56
2022/11/13 19:08:32;;;;;;;6.20;3.40;;;;;;;;;;1840934;77;21063;-57
2022/11/13 19:11:17;;;;;;;6.80;4.10;;;;;;;;;;1819541;78;21577;-57
2022/11/13 19:14:02;;;;;;;6.10;4.15;;;;;;;;;;1849286;77;21511;-57
2022/11/13 19:16:48;;;;;;;6.97;3.80;;;;;;;;;;1840350;77;21960;-57
2022/11/13 19:19:33;;;;;;;9.45;4.47;;;;;;;;;;1870228;77;20996;-57
2022/11/13 19:22:18;;;;;;;6.92;4.00;;;;;;;;;;1864460;77;21047;-57
2022/11/13 19:25:04;;;;;;;6.33;4.05;;;;;;;;;;1811641;79;21025;-57
2022/11/13 19:27:48;;;;;;;7.50;3.85;;;;;;;;;;1829903;78;21036;-56
2022/11/13 19:30:34;;;;;;;9.10;4.35;;;;;;;;;;1841483;77;20988;-56
2022/11/13 19:33:20;;;;;;;6.35;3.95;;;;;;;;;;1817958;78;21043;-57
2022/11/13 19:36:06;;;;;;;6.92;4.22;;;;;;;;;;1825193;77;21037;-57
2022/11/13 19:38:51;;;;;;;7.87;4.20;;;;;;;;;;1803673;79;21086;-57
2022/11/13 19:41:38;;;;;;;8.20;5.25;;;;;;;;;;1801813;79;21043;-58